createdAt,value
2019-05-15T00:00:48.196Z,56.41
2019-05-15T00:03:20.674Z,57.04
2019-05-15T00:05:51.515Z,57.03
2019-05-15T00:08:22.364Z,57.06
2019-05-15T00:10:53.059Z,56.59
2019-05-15T00:13:24.799Z,56.08
2019-05-15T00:15:55.479Z,56.21
2019-05-15T00:18:28.206Z,56.55
2019-05-15T00:20:59.537Z,56.76
2019-05-15T00:23:30.416Z,56.79
2019-05-15T00:26:01.080Z,56.83
2019-05-15T00:28:31.850Z,56.52
2019-05-15T00:31:02.546Z,56.39
2019-05-15T00:33:33.208Z,56.37
2019-05-15T00:36:03.908Z,56.77
2019-05-15T00:38:34.671Z,55.53
2019-05-15T00:41:05.307Z,56.33
2019-05-15T00:43:38.507Z,56.82
2019-05-15T00:46:09.644Z,57.38
2019-05-15T00:48:40.423Z,57.08
2019-05-15T00:51:11.358Z,56.22
2019-05-15T00:53:42.183Z,58.12
2019-05-15T00:56:13.056Z,58.73
2019-05-15T00:58:43.696Z,59.12
2019-05-15T01:01:14.391Z,58.54
2019-05-15T01:03:45.151Z,58.12
2019-05-15T01:06:15.920Z,58.64
2019-05-15T01:08:48.312Z,58.39
2019-05-15T01:11:19.322Z,58.08
2019-05-15T01:13:49.972Z,57.26
2019-05-15T01:16:20.938Z,56.93
2019-05-15T01:18:51.711Z,58.47
2019-05-15T01:21:22.620Z,57.19
2019-05-15T01:23:53.529Z,58.63
2019-05-15T01:26:24.430Z,57.76
2019-05-15T01:28:55.196Z,59.19
2019-05-15T01:31:28.375Z,58.41
2019-05-15T01:33:58.443Z,58.48
2019-05-15T01:36:29.307Z,57.47
2019-05-15T01:38:59.964Z,57.14
2019-05-15T01:41:30.668Z,54.77
2019-05-15T01:44:01.482Z,58.70
2019-05-15T01:46:32.172Z,59.11
2019-05-15T01:49:03.046Z,58.92
2019-05-15T01:51:33.812Z,57.96
2019-05-15T01:54:04.572Z,57.78
2019-05-15T01:56:35.310Z,57.45
2019-05-15T01:59:05.961Z,57.51
2019-05-15T02:01:39.136Z,58.80
2019-05-15T02:04:09.564Z,58.83
2019-05-15T02:06:40.497Z,58.84
2019-05-15T02:09:11.197Z,59.42
2019-05-15T02:11:41.963Z,59.27
2019-05-15T02:14:12.945Z,57.15
2019-05-15T02:16:43.620Z,59.25
2019-05-15T02:19:14.267Z,60.23
2019-05-15T02:21:44.899Z,60.72
2019-05-15T02:24:15.683Z,60.51
2019-05-15T02:26:48.182Z,60.33
2019-05-15T02:29:24.749Z,60.37
2019-05-15T02:31:51.190Z,60.39
2019-05-15T02:34:22.812Z,60.73
2019-05-15T02:36:53.552Z,60.37
2019-05-15T02:39:24.328Z,59.95
2019-05-15T02:41:55.022Z,59.72
2019-05-15T02:44:25.571Z,59.98
2019-05-15T02:46:58.795Z,60.48
2019-05-15T02:49:30.223Z,60.21
2019-05-15T02:52:01.223Z,60.04
2019-05-15T02:54:31.981Z,60.10
2019-05-15T02:57:02.791Z,60.63
2019-05-15T02:59:33.627Z,60.56
2019-05-15T03:02:04.496Z,59.85
2019-05-15T03:04:35.263Z,60.16
2019-05-15T03:07:09.423Z,60.32
2019-05-15T03:09:39.968Z,60.15
2019-05-15T03:12:11.159Z,60.09
2019-05-15T03:14:42.498Z,60.27
2019-05-15T03:17:13.332Z,61.12
2019-05-15T03:19:44.168Z,61.13
2019-05-15T03:22:15.233Z,60.66
2019-05-15T03:24:46.004Z,60.92
2019-05-15T03:27:19.518Z,60.93
2019-05-15T03:29:49.517Z,61.56
2019-05-15T03:32:33.563Z,61.64
2019-05-15T03:34:56.415Z,61.26
2019-05-15T03:37:25.260Z,61.76
2019-05-15T03:39:59.232Z,60.66
2019-05-15T03:42:29.405Z,62.08
2019-05-15T03:45:00.456Z,61.85
2019-05-15T03:47:31.317Z,62.83
2019-05-15T03:50:02.301Z,61.98
2019-05-15T03:52:32.988Z,62.85
2019-05-15T03:55:03.773Z,62.80
2019-05-15T03:57:34.560Z,62.96
2019-05-15T04:00:09.346Z,62.24
2019-05-15T04:02:39.376Z,62.07
2019-05-15T04:05:12.325Z,62.39
2019-05-15T04:07:43.132Z,62.88
2019-05-15T04:10:14.308Z,63.16
2019-05-15T04:12:45.047Z,63.50
2019-05-15T04:15:18.755Z,63.01
2019-05-15T04:17:49.329Z,63.15
2019-05-15T04:20:20.479Z,62.63
2019-05-15T04:22:50.955Z,62.55
2019-05-15T04:25:21.461Z,62.04
2019-05-15T04:27:52.328Z,61.46
2019-05-15T04:30:22.827Z,61.38
2019-05-15T04:32:53.300Z,61.61
2019-05-15T04:35:23.822Z,62.26
2019-05-15T04:37:54.306Z,62.20
2019-05-15T04:40:24.803Z,61.86
2019-05-15T04:42:55.301Z,61.18
2019-05-15T04:45:25.777Z,60.90
2019-05-15T04:47:58.766Z,61.50
2019-05-15T04:50:28.967Z,61.24
2019-05-15T04:52:59.705Z,61.17
2019-05-15T04:55:30.184Z,60.90
2019-05-15T04:58:00.871Z,61.11
2019-05-15T05:00:49.509Z,61.33
2019-05-15T05:03:20.540Z,60.40
2019-05-15T05:05:51.755Z,61.33
2019-05-15T05:08:23.243Z,60.75
2019-05-15T05:10:53.797Z,61.11
2019-05-15T05:13:24.274Z,60.78
2019-05-15T05:15:54.853Z,60.98
2019-05-15T05:18:25.320Z,60.34
2019-05-15T05:20:57.753Z,60.22
2019-05-15T05:23:28.436Z,60.74
2019-05-15T05:26:00.103Z,60.17
2019-05-15T05:28:30.632Z,60.06
2019-05-15T05:31:01.147Z,59.90
2019-05-15T05:33:31.646Z,59.95
2019-05-15T05:36:02.214Z,60.22
2019-05-15T05:38:32.811Z,59.71
2019-05-15T05:41:03.349Z,58.95
2019-05-15T05:43:34.151Z,59.47
2019-05-15T05:46:04.662Z,58.96
2019-05-15T05:48:35.244Z,58.70
2019-05-15T05:51:05.780Z,58.65
2019-05-15T05:53:38.388Z,58.71
2019-05-15T05:56:09.065Z,57.89
2019-05-15T05:58:39.716Z,57.81
2019-05-15T06:01:10.244Z,57.17
2019-05-15T06:03:40.747Z,57.14
2019-05-15T06:06:11.255Z,57.18
2019-05-15T06:08:41.807Z,57.35
2019-05-15T06:11:12.300Z,56.85
2019-05-15T06:13:42.811Z,56.71
2019-05-15T06:16:13.286Z,56.35
2019-05-15T06:18:43.884Z,55.78
2019-05-15T06:21:14.355Z,56.22
2019-05-15T06:23:46.857Z,56.20
2019-05-15T06:26:19.697Z,56.17
2019-05-15T06:28:49.513Z,56.15
2019-05-15T06:31:19.995Z,55.99
2019-05-15T06:33:50.476Z,55.46
2019-05-15T06:36:21.078Z,54.86
2019-05-15T06:38:51.559Z,54.83
2019-05-15T06:41:22.059Z,54.21
2019-05-15T06:43:52.588Z,53.82
2019-05-15T06:46:23.052Z,53.60
2019-05-15T06:48:54.656Z,53.84
2019-05-15T06:51:25.116Z,53.57
2019-05-15T06:53:55.626Z,52.75
2019-05-15T06:56:28.164Z,53.06
2019-05-15T06:58:58.356Z,52.30
2019-05-15T07:01:29.430Z,52.16
2019-05-15T07:04:00.201Z,52.41
2019-05-15T07:06:30.699Z,52.25
2019-05-15T07:09:01.189Z,52.18
2019-05-15T07:11:33.113Z,51.72
2019-05-15T07:14:03.580Z,49.73
2019-05-15T07:16:34.236Z,49.23
2019-05-15T07:19:04.704Z,48.07
2019-05-15T07:21:35.220Z,47.38
2019-05-15T07:24:05.692Z,47.18
2019-05-15T07:26:38.944Z,47.88
2019-05-15T07:29:08.393Z,48.06
2019-05-15T07:31:38.918Z,46.69
2019-05-15T07:34:09.415Z,46.28
2019-05-15T07:36:39.874Z,44.89
2019-05-15T07:39:10.406Z,45.65
2019-05-15T07:41:40.865Z,45.46
2019-05-15T07:44:11.384Z,45.32
2019-05-15T07:46:41.850Z,45.08
2019-05-15T07:49:12.357Z,44.73
2019-05-15T07:51:42.843Z,43.59
2019-05-15T07:54:13.324Z,44.42
2019-05-15T07:56:43.855Z,43.31
2019-05-15T07:59:14.314Z,43.11
2019-05-15T08:01:44.965Z,46.66
2019-05-15T08:04:26.225Z,48.49
2019-05-15T08:06:49.099Z,48.67
2019-05-15T08:09:19.752Z,47.72
2019-05-15T08:11:50.225Z,43.48
2019-05-15T08:14:20.720Z,45.29
2019-05-15T08:16:51.193Z,47.68
2019-05-15T08:19:21.706Z,47.53
2019-05-15T08:21:52.192Z,47.85
2019-05-15T08:24:22.752Z,48.29
2019-05-15T08:26:53.227Z,47.32
2019-05-15T08:29:23.716Z,47.18
2019-05-15T08:31:54.256Z,46.53
2019-05-15T08:34:24.764Z,46.17
2019-05-15T08:36:55.264Z,45.73
2019-05-15T08:39:28.340Z,46.01
2019-05-15T08:41:58.425Z,46.25
2019-05-15T08:44:29.527Z,45.57
2019-05-15T08:47:00.097Z,45.44
2019-05-15T08:49:31.051Z,42.51
2019-05-15T08:52:01.509Z,38.57
2019-05-15T08:54:32.117Z,39.61
2019-05-15T08:57:02.587Z,38.60
2019-05-15T08:59:33.081Z,38.55
2019-05-15T09:02:03.553Z,37.00
2019-05-15T09:04:35.158Z,37.13
2019-05-15T09:07:08.947Z,37.74
2019-05-15T09:09:38.435Z,37.11
2019-05-15T09:12:09.176Z,37.73
2019-05-15T09:14:39.636Z,37.81
2019-05-15T09:17:10.257Z,36.75
2019-05-15T09:19:40.847Z,36.99
2019-05-15T09:22:11.370Z,37.20
2019-05-15T09:24:41.912Z,37.06
2019-05-15T09:27:12.457Z,40.55
2019-05-15T09:29:44.039Z,41.61
2019-05-15T09:32:14.504Z,41.83
2019-05-15T09:34:53.915Z,42.65
2019-05-15T09:37:18.050Z,42.14
2019-05-15T09:39:49.092Z,42.38
2019-05-15T09:42:19.803Z,42.00
2019-05-15T09:44:50.245Z,42.61
2019-05-15T09:47:21.031Z,41.71
2019-05-15T09:49:51.496Z,42.32
2019-05-15T09:52:23.036Z,42.71
2019-05-15T09:54:54.122Z,41.97
2019-05-15T09:57:24.873Z,41.38
2019-05-15T09:59:58.548Z,41.15
2019-05-15T10:02:28.532Z,40.89
2019-05-15T10:05:06.692Z,40.59
2019-05-15T10:07:31.906Z,41.05
2019-05-15T10:10:02.678Z,41.17
2019-05-15T10:12:35.112Z,41.72
2019-05-15T10:15:11.434Z,41.91
2019-05-15T10:17:40.115Z,40.86
2019-05-15T10:20:11.176Z,40.01
2019-05-15T10:22:42.270Z,39.50
2019-05-15T10:25:13.165Z,39.35
2019-05-15T10:27:44.152Z,40.11
2019-05-15T10:30:15.175Z,38.25
2019-05-15T10:32:48.483Z,38.57
2019-05-15T10:35:25.647Z,38.62
2019-05-15T10:37:51.182Z,38.28
2019-05-15T10:40:22.213Z,38.81
2019-05-15T10:42:52.970Z,37.23
2019-05-15T10:45:24.152Z,37.66
2019-05-15T10:47:55.435Z,36.34
2019-05-15T10:50:28.446Z,37.07
2019-05-15T10:52:58.641Z,38.16
2019-05-15T10:55:29.589Z,38.10
2019-05-15T10:58:00.357Z,36.61
2019-05-15T11:00:32.165Z,37.22
2019-05-15T11:03:02.864Z,37.94
2019-05-15T11:05:44.450Z,37.48
2019-05-15T11:08:08.345Z,36.61
2019-05-15T11:10:41.916Z,37.39
2019-05-15T11:13:11.469Z,33.80
2019-05-15T11:15:42.732Z,31.81
2019-05-15T11:18:13.603Z,34.81
2019-05-15T11:20:44.643Z,37.50
2019-05-15T11:23:20.128Z,36.14
2019-05-15T11:25:50.831Z,35.57
2019-05-15T11:28:21.516Z,35.67
2019-05-15T11:30:53.298Z,35.52
2019-05-15T11:33:23.998Z,36.95
2019-05-15T11:36:04.164Z,36.50
2019-05-15T11:38:28.975Z,36.71
2019-05-15T11:40:59.780Z,36.63
2019-05-15T11:43:30.518Z,35.01
2019-05-15T11:46:02.234Z,33.34
2019-05-15T11:48:33.018Z,32.24
2019-05-15T11:51:03.913Z,32.07
2019-05-15T11:53:34.737Z,31.53
2019-05-15T11:56:05.586Z,32.67
2019-05-15T11:58:38.790Z,32.66
2019-05-15T12:01:09.038Z,32.18
2019-05-15T12:03:39.796Z,32.60
2019-05-15T12:06:18.473Z,33.86
2019-05-15T12:08:43.396Z,34.47
2019-05-15T12:11:28.685Z,31.80
2019-05-15T12:13:46.632Z,33.53
2019-05-15T12:16:17.429Z,32.30
2019-05-15T12:18:48.410Z,31.11
2019-05-15T12:21:20.072Z,32.31
2019-05-15T12:23:51.862Z,31.92
2019-05-15T12:26:22.483Z,29.94
2019-05-15T12:28:53.241Z,30.12
2019-05-15T12:33:58.498Z,29.49
2019-05-15T12:36:47.322Z,30.51
2019-05-15T12:39:09.481Z,30.16
2019-05-15T12:39:25.962Z,31.45
2019-05-15T13:01:54.603Z,27.40
2019-05-15T13:04:25.565Z,29.27
2019-05-15T13:07:12.209Z,28.65
2019-05-15T13:09:28.845Z,29.45
2019-05-15T13:11:59.457Z,28.93
2019-05-15T13:14:30.114Z,29.17
2019-05-15T13:17:00.951Z,29.42
2019-05-15T13:19:31.717Z,30.03
2019-05-15T13:22:02.418Z,29.84
2019-05-15T13:24:33.167Z,29.85
2019-05-15T13:27:04.053Z,29.44
2019-05-15T13:29:34.968Z,30.08
2019-05-15T13:32:07.914Z,29.53
2019-05-15T13:34:38.879Z,29.52
2019-05-15T13:37:09.889Z,29.97
2019-05-15T13:39:40.632Z,29.82
2019-05-15T13:42:11.597Z,29.81
2019-05-15T13:44:42.303Z,28.11
2019-05-15T13:47:13.229Z,28.79
2019-05-15T13:49:43.840Z,29.09
2019-05-15T13:52:14.700Z,31.94
2019-05-15T13:54:45.542Z,29.38
2019-05-15T13:57:18.036Z,29.32
2019-05-15T13:59:49.945Z,30.13
2019-05-15T14:02:20.737Z,29.65
2019-05-15T14:04:52.465Z,28.51
2019-05-15T14:07:23.248Z,27.59
2019-05-15T14:09:54.108Z,28.59
2019-05-15T14:12:25.016Z,29.13
2019-05-15T14:14:58.046Z,27.27
2019-05-15T14:17:28.454Z,25.97
2019-05-15T14:20:00.888Z,29.24
2019-05-15T14:22:32.876Z,27.72
2019-05-15T14:25:03.775Z,26.27
2019-05-15T14:27:34.850Z,27.33
2019-05-15T14:30:06.056Z,26.74
2019-05-15T14:32:53.370Z,26.13
2019-05-15T14:35:11.396Z,26.01
2019-05-15T14:37:41.972Z,26.73
2019-05-15T14:40:12.945Z,25.09
2019-05-15T14:42:43.936Z,25.80
2019-05-15T14:45:14.867Z,28.05
2019-05-15T14:47:45.572Z,30.03
2019-05-15T14:50:16.133Z,27.25
2019-05-15T14:52:48.008Z,25.49
2019-05-15T14:55:18.682Z,26.62
2019-05-15T14:57:49.257Z,25.62
2019-05-15T15:00:20.778Z,26.13
2019-05-15T15:02:51.244Z,24.96
2019-05-15T15:05:23.118Z,27.29
2019-05-15T15:07:54.289Z,28.55
2019-05-15T15:10:24.808Z,26.69
2019-05-15T15:12:55.321Z,26.27
2019-05-15T15:15:25.792Z,26.07
2019-05-15T15:17:58.365Z,26.48
2019-05-15T15:20:28.697Z,24.75
2019-05-15T15:22:59.539Z,25.51
2019-05-15T15:25:30.032Z,25.33
2019-05-15T15:28:00.515Z,26.51
2019-05-15T15:30:32.035Z,24.30
2019-05-15T15:33:03.782Z,25.59
2019-05-15T15:35:34.282Z,25.56
2019-05-15T15:38:04.865Z,24.16
2019-05-15T15:40:38.576Z,24.66
2019-05-15T15:43:09.629Z,25.74
2019-05-15T15:45:40.974Z,27.07
2019-05-15T15:48:11.849Z,25.93
2019-05-15T15:50:42.710Z,25.95
2019-05-15T15:53:24.517Z,26.00
2019-05-15T15:55:56.886Z,27.39
2019-05-15T15:58:29.029Z,28.29
2019-05-15T16:01:00.818Z,29.47
2019-05-15T16:03:31.682Z,29.63
2019-05-15T16:06:02.614Z,29.60
2019-05-15T16:08:33.553Z,27.11
2019-05-15T16:11:04.703Z,26.80
2019-05-15T16:13:35.565Z,27.31
2019-05-15T16:16:08.586Z,26.97
2019-05-15T16:18:39.086Z,27.03
2019-05-15T16:21:09.986Z,27.42
2019-05-15T16:23:41.127Z,27.54
2019-05-15T16:26:12.055Z,28.58
2019-05-15T16:28:42.698Z,27.77
2019-05-15T16:31:13.303Z,29.11
2019-05-15T16:33:44.061Z,30.18
2019-05-15T16:36:14.765Z,29.85
2019-05-15T16:38:48.044Z,28.84
2019-05-15T16:41:18.587Z,30.20
2019-05-15T16:43:49.159Z,29.93
2019-05-15T16:46:20.118Z,29.62
2019-05-15T16:48:51.139Z,29.20
2019-05-15T16:51:23.185Z,31.14
2019-05-15T16:53:53.829Z,29.20
2019-05-15T16:56:24.635Z,29.76
2019-05-15T16:58:55.347Z,30.76
2019-05-15T17:01:28.817Z,30.11
2019-05-15T17:03:58.613Z,29.91
2019-05-15T17:06:29.542Z,30.01
2019-05-15T17:09:00.389Z,30.41
2019-05-15T17:11:32.654Z,30.17
2019-05-15T17:14:03.625Z,30.08
2019-05-15T17:16:34.573Z,30.18
2019-05-15T17:19:05.334Z,31.58
2019-05-15T17:21:36.171Z,32.29
2019-05-15T17:24:08.882Z,32.12
2019-05-15T17:26:39.714Z,30.43
2019-05-15T17:29:10.654Z,31.93
2019-05-15T17:31:41.578Z,32.01
2019-05-15T17:34:12.462Z,32.04
2019-05-15T17:36:43.374Z,32.05
2019-05-15T17:39:15.136Z,32.95
2019-05-15T17:41:48.185Z,31.12
2019-05-15T17:44:18.613Z,31.96
2019-05-15T17:46:49.347Z,32.30
2019-05-15T17:49:20.448Z,32.64
2019-05-15T17:51:52.173Z,33.15
2019-05-15T17:54:22.840Z,33.84
2019-05-15T17:56:53.786Z,34.39
2019-05-15T17:59:24.784Z,33.55
2019-05-15T18:01:55.650Z,33.11
2019-05-15T18:04:58.723Z,34.11
2019-05-15T18:07:29.968Z,34.44
2019-05-15T18:10:00.806Z,33.92
2019-05-15T18:12:31.702Z,34.89
2019-05-15T18:15:02.682Z,33.89
2019-05-15T18:17:34.206Z,34.63
2019-05-15T18:20:05.071Z,35.35
2019-05-15T18:22:37.923Z,36.01
2019-05-15T18:25:09.239Z,34.49
2019-05-15T18:27:40.297Z,35.86
2019-05-15T18:30:11.275Z,34.60
2019-05-15T18:32:42.164Z,36.84
2019-05-15T18:35:13.432Z,36.11
2019-05-15T18:37:44.525Z,37.21
2019-05-15T18:40:15.196Z,36.87
2019-05-15T18:42:45.720Z,37.09
2019-05-15T18:45:18.389Z,37.51
2019-05-15T18:47:48.919Z,37.38
2019-05-15T18:50:19.923Z,37.27
2019-05-15T18:52:50.722Z,37.93
2019-05-15T18:55:21.622Z,37.37
2019-05-15T18:57:52.289Z,38.02
2019-05-15T19:00:23.386Z,38.33
2019-05-15T19:02:54.303Z,37.37
2019-05-15T19:05:25.321Z,38.00
2019-05-15T19:07:58.020Z,39.20
2019-05-15T19:10:29.089Z,38.37
2019-05-15T19:13:00.004Z,39.83
2019-05-15T19:15:31.060Z,38.30
2019-05-15T19:26:18.342Z,43.73
2019-05-15T19:28:49.316Z,43.32
2019-05-15T19:31:26.570Z,42.36
2019-05-15T19:33:52.749Z,41.54
2019-05-15T19:36:23.398Z,41.61
2019-05-15T19:38:54.385Z,40.35
2019-05-15T19:41:25.275Z,41.34
2019-05-15T19:43:58.001Z,40.50
2019-05-15T19:46:28.597Z,39.79
2019-05-15T19:48:59.325Z,40.26
2019-05-15T19:51:30.291Z,39.90
2019-05-15T19:54:01.173Z,39.87
2019-05-15T19:56:32.051Z,41.21
2019-05-15T19:59:02.956Z,40.01
2019-05-15T20:01:33.679Z,42.10
2019-05-15T20:04:04.690Z,42.05
2019-05-15T20:06:35.789Z,44.17
2019-05-15T20:09:07.840Z,44.82
2019-05-15T20:11:38.893Z,44.44
2019-05-15T20:14:09.807Z,45.57
2019-05-15T20:16:40.570Z,45.68
2019-05-15T20:19:11.322Z,45.77
2019-05-15T20:21:42.479Z,46.39
2019-05-15T20:24:13.459Z,47.28
2019-05-15T20:26:44.228Z,47.26
2019-05-15T20:29:14.962Z,47.92
2019-05-15T20:31:48.308Z,49.31
2019-05-15T20:34:18.364Z,49.07
2019-05-15T20:36:49.137Z,49.50
2019-05-15T20:39:19.936Z,49.88
2019-05-15T20:41:50.607Z,49.77
2019-05-15T20:44:21.523Z,49.26
2019-05-15T20:46:52.432Z,49.28
2019-05-15T20:49:23.076Z,48.94
2019-05-15T20:51:53.828Z,49.35
2019-05-15T20:54:24.748Z,49.68
2019-05-15T20:56:58.372Z,49.62
2019-05-15T20:59:28.956Z,48.76
2019-05-15T21:01:59.783Z,48.75
2019-05-15T21:04:31.381Z,47.64
2019-05-15T21:07:03.233Z,49.45
2019-05-15T21:09:33.960Z,50.14
2019-05-15T21:12:04.729Z,50.77
2019-05-15T21:14:39.803Z,51.45
2019-05-15T21:17:08.303Z,52.14
2019-05-15T21:19:39.162Z,52.76
2019-05-15T21:22:11.009Z,52.54
2019-05-15T21:24:41.856Z,52.90
2019-05-15T21:27:12.694Z,53.16
2019-05-15T21:29:43.456Z,53.84
2019-05-15T21:32:14.246Z,53.41
2019-05-15T21:34:45.626Z,53.92
2019-05-15T21:37:18.597Z,54.39
2019-05-15T21:39:49.163Z,54.11
2019-05-15T21:42:19.931Z,54.21
2019-05-15T21:44:50.582Z,54.47
2019-05-15T21:47:21.510Z,54.48
2019-05-15T21:49:52.157Z,54.68
2019-05-15T21:52:22.824Z,54.72
2019-05-15T21:54:53.528Z,54.98
2019-05-15T21:57:33.130Z,54.70
2019-05-15T21:59:57.801Z,55.90
2019-05-15T22:02:29.730Z,55.36
2019-05-15T22:05:01.069Z,55.55
2019-05-15T22:07:32.096Z,55.67
2019-05-15T22:10:02.890Z,55.09
2019-05-15T22:12:34.820Z,55.37
2019-05-15T22:15:05.836Z,55.11
2019-05-15T22:17:38.954Z,56.63
2019-05-15T22:20:10.264Z,56.31
2019-05-15T22:22:41.173Z,56.96
2019-05-15T22:25:12.447Z,56.93
2019-05-15T22:27:43.244Z,57.21
2019-05-15T22:30:14.970Z,55.80
2019-05-15T22:32:46.097Z,56.30
2019-05-15T22:35:18.859Z,56.72
2019-05-15T22:37:50.052Z,56.76
2019-05-15T22:40:22.548Z,57.18
2019-05-15T22:42:53.300Z,57.18
2019-05-15T22:45:24.417Z,57.42
2019-05-15T22:47:55.190Z,57.26
2019-05-15T22:50:27.873Z,57.47
2019-05-15T22:52:59.025Z,57.74
2019-05-15T22:55:29.876Z,58.29
2019-05-15T22:58:00.774Z,58.71
2019-05-15T23:00:31.753Z,58.26
2019-05-15T23:03:02.667Z,57.96
2019-05-15T23:05:33.445Z,58.09
2019-05-15T23:08:05.287Z,58.36
2019-05-15T23:10:37.945Z,58.05
2019-05-15T23:13:08.868Z,58.65
2019-05-15T23:15:39.804Z,59.16
2019-05-15T23:18:10.476Z,58.79
2019-05-15T23:20:41.343Z,58.73
2019-05-15T23:23:12.153Z,58.94
2019-05-15T23:25:42.891Z,59.02
2019-05-15T23:28:13.725Z,58.44
2019-05-15T23:30:44.555Z,58.53
2019-05-15T23:33:15.490Z,58.59
2019-05-15T23:35:48.595Z,59.63
2019-05-15T23:38:19.179Z,59.92
2019-05-15T23:40:49.877Z,59.34
2019-05-15T23:43:20.865Z,58.89
2019-05-15T23:45:51.979Z,59.00
2019-05-15T23:48:22.920Z,59.34
2019-05-15T23:50:53.800Z,58.92
2019-05-15T23:53:24.367Z,59.47
2019-05-15T23:55:55.077Z,59.33
2019-05-15T23:58:25.841Z,59.56
